createdAt,value
2022-08-14T00:03:00.369Z,4271.49609
2022-08-14T00:18:02.797Z,16275.92871
2022-08-14T00:33:15.205Z,15397.55566
2022-08-14T00:48:34.822Z,14103.85254
2022-08-14T01:03:39.083Z,5482.7832
2022-08-14T01:18:41.315Z,2948.51416
2022-08-14T01:33:59.516Z,1469.37732
2022-08-14T01:49:02.896Z,1024.76868
2022-08-14T02:04:05.113Z,842.58752
2022-08-14T02:19:23.253Z,659.32202
2022-08-14T02:34:27.658Z,434.84891
2022-08-14T02:49:33.930Z,292.79105
2022-08-14T03:04:36.864Z,109.52554
2022-08-14T03:19:42.432Z,26.02587
2022-08-14T03:34:48.588Z,2.16882
2022-08-14T03:49:58.322Z,0
2022-08-14T04:05:08.139Z,0
2022-08-14T04:20:15.331Z,0
2022-08-14T04:35:56.405Z,0
2022-08-14T04:50:59.372Z,0
2022-08-14T05:06:02.960Z,0
2022-08-14T05:21:59.260Z,0
2022-08-14T05:37:03.811Z,0
2022-08-14T05:52:09.933Z,0
2022-08-14T06:07:12.290Z,0
2022-08-14T06:22:14.523Z,0
2022-08-14T06:37:19.709Z,0
2022-08-14T06:52:24.055Z,0
2022-08-14T07:07:28.795Z,0
2022-08-14T07:22:33.103Z,0
2022-08-14T07:37:58.297Z,0
2022-08-14T07:53:01.442Z,0
2022-08-14T08:08:08.374Z,0
2022-08-14T08:23:40.520Z,0
2022-08-14T08:39:16.743Z,0
2022-08-14T08:54:26.742Z,0
2022-08-14T09:09:34.031Z,0
2022-08-14T09:24:57.104Z,0
2022-08-14T09:39:59.398Z,0
2022-08-14T09:55:02.809Z,0
2022-08-14T10:10:23.652Z,0
2022-08-14T10:25:26.518Z,0
2022-08-14T10:40:38.087Z,0
2022-08-14T10:55:46.089Z,0
2022-08-14T11:10:48.314Z,0
2022-08-14T11:25:52.998Z,0
2022-08-14T11:40:55.979Z,0
2022-08-14T11:55:58.302Z,0
2022-08-14T12:11:00.770Z,1.08441
2022-08-14T12:26:39.566Z,13.01294
2022-08-14T12:41:43.504Z,72.65556
2022-08-14T12:56:45.920Z,187.60315
2022-08-14T13:11:49.085Z,323.15457
2022-08-14T13:27:01.840Z,477.14096
2022-08-14T13:42:05.204Z,1203.69653
2022-08-14T13:57:10.885Z,1806.62915
2022-08-14T14:12:36.601Z,2572.22363
2022-08-14T14:27:43.629Z,2948.51416
2022-08-14T14:42:46.000Z,4389.69678
2022-08-14T14:57:52.044Z,2264.25073
2022-08-14T15:13:00.309Z,2718.61914
2022-08-14T15:28:06.872Z,5294.0957
2022-08-14T15:43:13.266Z,6380.67578
2022-08-14T15:58:15.576Z,6817.69385
2022-08-14T16:13:39.740Z,7053.01074
2022-08-14T16:28:44.652Z,6699.49268
2022-08-14T16:43:47.453Z,6425.13672
2022-08-14T16:58:50.066Z,6250.54639
2022-08-14T17:14:00.725Z,6088.96924
2022-08-14T17:29:03.678Z,6244.04004
2022-08-14T17:44:06.356Z,6245.12451
2022-08-14T17:59:11.658Z,6486.94824
2022-08-14T18:14:31.339Z,6762.38867
2022-08-14T18:29:35.441Z,6743.95361
2022-08-14T18:44:44.797Z,6633.34375
2022-08-14T18:59:47.408Z,6491.28564
2022-08-14T19:14:51.096Z,6512.97412
2022-08-14T19:29:53.871Z,6504.29883
2022-08-14T19:44:56.229Z,6568.27881
2022-08-14T20:00:00.058Z,6855.64795
2022-08-14T20:15:02.873Z,6721.18115
2022-08-14T20:30:29.883Z,6420.79932
2022-08-14T20:45:36.866Z,6360.07227
2022-08-14T21:00:52.397Z,6215.84521
2022-08-14T21:15:58.118Z,6446.8252
2022-08-14T21:31:01.282Z,7172.2959
2022-08-14T21:46:03.606Z,8393.34277
2022-08-14T22:01:05.970Z,9589.44922
2022-08-14T22:17:00.558Z,10590.36035
2022-08-14T22:32:14.327Z,11597.77832
2022-08-14T22:47:24.673Z,12238.66504
2022-08-14T23:02:30.246Z,12967.38965
2022-08-14T23:17:39.540Z,13764.43262
2022-08-14T23:32:42.768Z,14633.0459
2022-08-14T23:47:51.654Z,15282.6084
